Terminal Aerodrome Forecast
Issued by NWS

Home | Current Version | Previous Version | Graphics & Text | Print | Product List | Glossary On
Versions: 1 2 3 4 5 6 7 8 9 10 11 12 13 14 15 16 17 18 19 20 21 22 23 24 25 26 27
000
FTUS43 KABR 151100
TAFMBG
TAF
KMBG 151133Z 1512/1612 13009KT P6SM BKN100
     FM151500 14019G27KT P6SM BKN100
     FM160300 10017KT P6SM -RA OVC080
     FM160800 05014KT 3SM -SN OVC025=

USA.gov is the U.S. government's official web portal to all federal, state and local government web resources and services.